Reykjavik, Iceland
Current Conditions -  °F | °C
As of 10:00 PM on Sunday 25 Jan 2015 (Local Time) from BIRK Reporting Station
Hail Hail  
Wind Chill: -7°   Ceiling: 2500
Heat Index:   Visibility: 6mi
Dew Point: -5°   Wind: 33mph
Humidity: 65%   Direction: 250°WSW
Pressure: 29.06"   Gusts: 45mph
Location:  64.14°N, 21.92°W
Report Text: BIRK 252200Z 25029G39KT 9999 -SHGS FEW015 BKN025CB 01/M05 Q0984
Loading
Personal Weather Stations






























Interactive Weather Map New forecast layout! Learn more

10-Day Weather Forecast

Advertisements
Track Severe Weather on mobile